Portada
METAR-TAF:

METAR-TAF

Aeropuertos :

Dakar, Senegal

Aeropuerto Internacional de Dakar-Yoff/Léopold Sédar Senghor

latitud: 14-44N, longitud: 017-30W, altitud: 27 m

Observación

El informe se hizo hace 1 hora y 18 minutos, a las 14:00 UTC
Viento 8 kt del noreste
Temperatura 27°C
Humedad 42%
Presión 1013 hPa
Visibilidad: 4000 m

METAR: GOOY 111400Z 04008KT 4000 NSC 27/13 Q1013

Hora: 15:18 (15:18 UTC)

Pronóstico

El informe se hizo hace 3 horas y 48 minutos, a las 11:30 UTC
Pronóstico válido del 11 a las 12 UTC al 12 a las 18 UTC
Viento 10 kt del norte-noreste
Visibilidad: 4000 m
Polvo extendido
Evolucionando progresivamente
del 11 a las 18 UTC al 11 a las 20 UTC
Visibilidad: 6000 m

TAF: GOOY 111130Z 1112/1218 03010KT 4000 DU NSC BECMG 1118/1120 6000

Observaciones y pronósticos meteorológicos de más de 4000 aeropuertos (mensajes METAR y TAF).

Los puntos amarillos y rojos representan las estaciones disponibles.

Ponga el ratón en el punto deseado para ver el nombre de la estación.

Haga clic para ver las observaciones y los pronósticos meteorológicos.

Para cambiar el mapa : haga clic en los botones verdes con una cruz de color negro para hacer un zoom, en el botón verde con un guión para alejar o en las flechas verdes para mapas adyacentes.


METAR-TAF: